TimeCST,TemperatureF,Dew PointF,Humidity,Sea Level PressureIn,VisibilityMPH,Wind Direction,Wind SpeedMPH,Gust SpeedMPH,PrecipitationIn,Events,Conditions,WindDirDegrees,DateUTC
12:53 AM,27.0,23.0,85,30.09,10.0,Calm,Calm,-,N/A,,Mostly Cloudy,0,2013-01-31 06:53:00
1:53 AM,26.1,23.0,88,30.09,10.0,SSW,3.5,-,N/A,,Clear,210,2013-01-31 07:53:00
2:53 AM,28.0,21.9,78,30.07,10.0,Calm,Calm,-,N/A,,Clear,0,2013-01-31 08:53:00
3:53 AM,28.9,21.9,75,30.07,10.0,Calm,Calm,-,N/A,,Partly Cloudy,0,2013-01-31 09:53:00
4:53 AM,28.9,21.9,75,30.08,10.0,Calm,Calm,-,N/A,,Partly Cloudy,0,2013-01-31 10:53:00
5:53 AM,28.9,21.9,75,30.09,10.0,SSW,6.9,-,N/A,,Partly Cloudy,210,2013-01-31 11:53:00
6:53 AM,28.9,21.0,72,30.10,10.0,SSW,5.8,-,N/A,,Mostly Cloudy,200,2013-01-31 12:53:00
7:53 AM,30.9,21.9,69,30.12,10.0,SSW,5.8,-,N/A,,Clear,200,2013-01-31 13:53:00
8:53 AM,37.9,28.0,68,30.14,10.0,SSW,10.4,-,N/A,,Partly Cloudy,210,2013-01-31 14:53:00
9:53 AM,45.0,26.1,48,30.15,10.0,SSW,5.8,-,N/A,,Partly Cloudy,210,2013-01-31 15:53:00
10:53 AM,53.1,21.9,30,30.14,10.0,SSW,11.5,-,N/A,,Partly Cloudy,200,2013-01-31 16:53:00
11:53 AM,59.0,19.0,21,30.12,10.0,SW,18.4,-,N/A,,Partly Cloudy,220,2013-01-31 17:53:00
12:53 PM,61.0,19.9,21,30.09,10.0,SSW,21.9,27.6,N/A,,Partly Cloudy,210,2013-01-31 18:53:00
1:53 PM,63.0,19.0,18,30.07,10.0,SW,15.0,27.6,N/A,,Clear,230,2013-01-31 19:53:00
2:53 PM,64.9,18.0,16,30.07,10.0,WSW,17.3,23.0,N/A,,Partly Cloudy,250,2013-01-31 20:53:00
3:53 PM,64.9,19.0,17,30.08,10.0,West,12.7,20.7,N/A,,Clear,280,2013-01-31 21:53:00
4:23 PM,53.6,28.4,38,30.12,10.0,North,26.5,34.5,N/A,,Partly Cloudy,10,2013-01-31 22:23:00
4:53 PM,51.1,28.0,41,30.17,10.0,NNE,27.6,34.5,N/A,,Partly Cloudy,20,2013-01-31 22:53:00
5:53 PM,43.0,27.0,53,30.25,10.0,NNE,15.0,21.9,N/A,,Partly Cloudy,20,2013-01-31 23:53:00
6:53 PM,37.9,-9999,N/A,30.34,10.0,NNE,19.6,27.6,N/A,,Clear,30,2013-02-01 00:53:00
7:53 PM,34.0,-9999,N/A,30.38,10.0,NNE,13.8,23.0,N/A,,Partly Cloudy,20,2013-02-01 01:53:00
8:53 PM,32.0,-9999,N/A,30.43,10.0,NNE,12.7,20.7,N/A,,Clear,30,2013-02-01 02:53:00
9:53 PM,30.0,-9999,N/A,30.43,10.0,NNE,15.0,21.9,N/A,,Clear,20,2013-02-01 03:53:00
10:53 PM,28.9,-9999,N/A,30.44,10.0,NNE,12.7,23.0,N/A,,Scattered Clouds,30,2013-02-01 04:53:00
11:53 PM,28.0,-9999,N/A,30.41,10.0,NNE,9.2,-,N/A,,Clear,30,2013-02-01 05:53:00